Iron Gate, VA (24448)

9:45 PM EDT on October 24, 2014 (GMT -0400)
Alleghany Street | Change Station
CLOSE
Current Station
Personal Weather Station
Location: Clifton Forge, VA
Elevation: 1175 ft
Nearby Weather Stations

Elev 1175 ft 37.81 °N, 79.84 °W | Updated 12 minutes ago

Clear
Clear
53.1 °F
Feels Like 53.1 °F
N
3.7
Wind Variable Wind from ESE

Today
High -- | Low -- °F
--% Chance of Precip.
Yesterday
High -- | Low -- °F
Precip. -- in
7:36 AM 6:29 PM
New Moon, 1% visible
Pressure 30.06 in
Visibility 10.0 miles
Clouds Clear
Dew Point 40 °F
Humidity 61%
Rainfall 0.00 in
Snow Depth Not available.
UV 0 out of 12
Pollen 1.20 out of 12
Air Quality Not available.
Flu Activity Sporadic
METAR KLWB 250135Z AUTO 00000KT 10SM CLR 07/03 A3006 RMK AO2 T00720028

More Conditions Fewer Conditions

Pressure 30.06 in
Visibility 10.0 miles
Clouds Clear
Dew Point 40 °F
Humidity 61%
Rainfall 0.00 in
Snow Depth Not available.
UV 0 out of 12
Pollen 1.20 out of 12
Air Quality Not available.
Flu Activity Sporadic
METAR KLWB 250135Z AUTO 00000KT 10SM CLR 07/03 A3006 RMK AO2 T00720028

More Conditions Fewer Conditions

10-Day Weather Forecast

Almanac

Astronomy

Oct. 24, 2014 Rise Set
Actual Time 7:36 AM EDT 6:29 PM EDT
Civil Twilight 7:09 AM EDT 6:56 PM EDT
Nautical Twilight 6:38 AM EDT 7:27 PM EDT
Astronomical Twilight 6:08 AM EDT 7:57 PM EDT
Moon 8:13 AM EDT (10/24) 7:09 PM EDT (10/24)
Length of Visible Light 11h 47m
Length of Day
10h 53m
Tomorrow will be 2m 15s shorter.
New Moon, 1% of the Moon is Illuminated
Today
New Moon
Oct 30
First Quarter
Nov 6
Full
Nov 14
Last Quarter
Nov 22
New

Today's Extremes

State Highs State Lows

Community

WunderPhotos

Upload Photos

1,764,749 photos uploaded!

WunderBlogs® & News

Nearby

Snow Depth

Station Depth Elevation
No new snow has been reported.

Earthquake Activity

City Distance Mag. Time & Date
No recent earthquake activity has been reported nearby.
Minimum magnitude displayed is 2.5.

Coastal Water Temperatures

Place Temperature
No Stations Reporting

Nearby Weather Stations